sensor_id;sensor_type;location;lat;lon;timestamp;temperature;humidity
10692;DHT22;5396;50.950;6.988;2023-07-31T00:00:33;17.00;99.90
10692;DHT22;5396;50.950;6.988;2023-07-31T00:02:59;17.10;99.90
10692;DHT22;5396;50.950;6.988;2023-07-31T00:05:24;17.10;99.90
10692;DHT22;5396;50.950;6.988;2023-07-31T00:07:50;17.20;99.90
10692;DHT22;5396;50.950;6.988;2023-07-31T00:10:16;17.30;99.90
10692;DHT22;5396;50.950;6.988;2023-07-31T00:12:42;17.30;99.90
10692;DHT22;5396;50.950;6.988;2023-07-31T00:15:10;17.30;99.90
10692;DHT22;5396;50.950;6.988;2023-07-31T00:17:36;17.20;99.90
10692;DHT22;5396;50.950;6.988;2023-07-31T00:20:02;17.20;99.90
10692;DHT22;5396;50.950;6.988;2023-07-31T00:22:28;17.10;99.90
10692;DHT22;5396;50.950;6.988;2023-07-31T00:24:53;17.10;99.90
10692;DHT22;5396;50.950;6.988;2023-07-31T00:27:19;17.00;99.90
10692;DHT22;5396;50.950;6.988;2023-07-31T00:29:45;16.90;99.90
10692;DHT22;5396;50.950;6.988;2023-07-31T00:32:10;16.90;99.90
10692;DHT22;5396;50.950;6.988;2023-07-31T00:34:36;16.90;99.90
10692;DHT22;5396;50.950;6.988;2023-07-31T00:37:01;16.90;99.90
10692;DHT22;5396;50.950;6.988;2023-07-31T00:39:27;17.00;99.90
10692;DHT22;5396;50.950;6.988;2023-07-31T00:41:52;17.10;99.90
10692;DHT22;5396;50.950;6.988;2023-07-31T00:44:18;17.10;99.90
10692;DHT22;5396;50.950;6.988;2023-07-31T00:46:44;17.10;99.90
10692;DHT22;5396;50.950;6.988;2023-07-31T00:49:10;17.20;99.90
10692;DHT22;5396;50.950;6.988;2023-07-31T00:51:36;17.20;99.90
10692;DHT22;5396;50.950;6.988;2023-07-31T00:54:03;17.30;99.90
10692;DHT22;5396;50.950;6.988;2023-07-31T00:56:28;17.30;99.90
10692;DHT22;5396;50.950;6.988;2023-07-31T00:58:55;17.40;99.90
10692;DHT22;5396;50.950;6.988;2023-07-31T01:01:21;17.40;99.90
10692;DHT22;5396;50.950;6.988;2023-07-31T01:03:48;17.50;99.90
10692;DHT22;5396;50.950;6.988;2023-07-31T01:09:53;17.60;99.90
10692;DHT22;5396;50.950;6.988;2023-07-31T01:12:26;17.60;99.90
10692;DHT22;5396;50.950;6.988;2023-07-31T01:15:03;17.60;99.90
10692;DHT22;5396;50.950;6.988;2023-07-31T01:17:29;17.60;99.90
10692;DHT22;5396;50.950;6.988;2023-07-31T01:19:58;17.60;99.90
10692;DHT22;5396;50.950;6.988;2023-07-31T01:28:19;17.70;99.90
10692;DHT22;5396;50.950;6.988;2023-07-31T01:30:48;17.80;99.90
10692;DHT22;5396;50.950;6.988;2023-07-31T01:33:15;17.80;99.90
10692;DHT22;5396;50.950;6.988;2023-07-31T01:35:44;17.90;99.90
10692;DHT22;5396;50.950;6.988;2023-07-31T01:38:10;17.80;99.90
10692;DHT22;5396;50.950;6.988;2023-07-31T01:40:36;17.90;99.90
10692;DHT22;5396;50.950;6.988;2023-07-31T01:43:02;17.90;99.90
10692;DHT22;5396;50.950;6.988;2023-07-31T01:45:27;17.90;99.90
10692;DHT22;5396;50.950;6.988;2023-07-31T01:47:53;17.90;99.90
10692;DHT22;5396;50.950;6.988;2023-07-31T01:50:18;17.90;99.90
10692;DHT22;5396;50.950;6.988;2023-07-31T01:52:44;17.90;99.90
10692;DHT22;5396;50.950;6.988;2023-07-31T01:55:09;17.90;99.90
10692;DHT22;5396;50.950;6.988;2023-07-31T01:57:36;17.90;99.90
10692;DHT22;5396;50.950;6.988;2023-07-31T02:00:02;17.90;99.90
10692;DHT22;5396;50.950;6.988;2023-07-31T02:02:28;17.90;99.90
10692;DHT22;5396;50.950;6.988;2023-07-31T02:04:53;17.90;99.90
10692;DHT22;5396;50.950;6.988;2023-07-31T02:07:19;18.00;99.90
10692;DHT22;5396;50.950;6.988;2023-07-31T02:09:44;18.00;99.90
10692;DHT22;5396;50.950;6.988;2023-07-31T02:12:12;18.00;99.90
10692;DHT22;5396;50.950;6.988;2023-07-31T02:14:39;18.00;99.90
10692;DHT22;5396;50.950;6.988;2023-07-31T02:17:05;18.00;99.90
10692;DHT22;5396;50.950;6.988;2023-07-31T02:19:31;18.00;99.90
10692;DHT22;5396;50.950;6.988;2023-07-31T02:21:57;18.00;99.90
10692;DHT22;5396;50.950;6.988;2023-07-31T02:24:23;18.00;99.90
10692;DHT22;5396;50.950;6.988;2023-07-31T02:26:49;18.00;99.90
10692;DHT22;5396;50.950;6.988;2023-07-31T02:29:16;18.00;99.90
10692;DHT22;5396;50.950;6.988;2023-07-31T02:31:41;18.00;99.90
10692;DHT22;5396;50.950;6.988;2023-07-31T02:34:07;18.00;99.90
10692;DHT22;5396;50.950;6.988;2023-07-31T02:36:32;18.00;99.90
10692;DHT22;5396;50.950;6.988;2023-07-31T02:38:58;18.00;99.90
10692;DHT22;5396;50.950;6.988;2023-07-31T02:41:24;18.00;99.90
10692;DHT22;5396;50.950;6.988;2023-07-31T02:43:49;18.10;99.90
10692;DHT22;5396;50.950;6.988;2023-07-31T02:46:15;18.10;99.90
10692;DHT22;5396;50.950;6.988;2023-07-31T02:48:40;18.10;99.90
10692;DHT22;5396;50.950;6.988;2023-07-31T02:51:06;18.00;99.90
10692;DHT22;5396;50.950;6.988;2023-07-31T02:53:32;18.10;99.90
10692;DHT22;5396;50.950;6.988;2023-07-31T02:55:57;18.10;99.90
10692;DHT22;5396;50.950;6.988;2023-07-31T02:58:23;18.10;99.90
10692;DHT22;5396;50.950;6.988;2023-07-31T03:00:48;18.10;99.90
10692;DHT22;5396;50.950;6.988;2023-07-31T03:03:14;18.10;99.90
10692;DHT22;5396;50.950;6.988;2023-07-31T03:05:40;18.10;99.90
10692;DHT22;5396;50.950;6.988;2023-07-31T03:08:06;18.10;99.90
10692;DHT22;5396;50.950;6.988;2023-07-31T03:10:31;18.10;99.90
10692;DHT22;5396;50.950;6.988;2023-07-31T03:12:58;18.10;99.90
10692;DHT22;5396;50.950;6.988;2023-07-31T03:15:23;18.10;99.90
10692;DHT22;5396;50.950;6.988;2023-07-31T03:17:49;18.10;99.90
10692;DHT22;5396;50.950;6.988;2023-07-31T03:20:15;18.10;99.90
10692;DHT22;5396;50.950;6.988;2023-07-31T03:22:40;18.10;99.90
10692;DHT22;5396;50.950;6.988;2023-07-31T03:25:06;18.20;99.90
10692;DHT22;5396;50.950;6.988;2023-07-31T03:27:32;18.20;99.90
10692;DHT22;5396;50.950;6.988;2023-07-31T03:29:57;18.30;99.90
10692;DHT22;5396;50.950;6.988;2023-07-31T03:32:24;18.20;99.90
10692;DHT22;5396;50.950;6.988;2023-07-31T03:34:50;18.30;99.90
10692;DHT22;5396;50.950;6.988;2023-07-31T03:37:15;18.20;99.90
10692;DHT22;5396;50.950;6.988;2023-07-31T03:39:41;18.30;99.90
10692;DHT22;5396;50.950;6.988;2023-07-31T03:42:06;18.30;99.90
10692;DHT22;5396;50.950;6.988;2023-07-31T03:44:32;18.30;99.90
10692;DHT22;5396;50.950;6.988;2023-07-31T03:46:58;18.30;99.90
10692;DHT22;5396;50.950;6.988;2023-07-31T03:49:23;18.30;99.90
10692;DHT22;5396;50.950;6.988;2023-07-31T03:51:49;18.20;99.90
10692;DHT22;5396;50.950;6.988;2023-07-31T03:54:15;18.10;99.90
10692;DHT22;5396;50.950;6.988;2023-07-31T03:56:41;18.00;99.90
10692;DHT22;5396;50.950;6.988;2023-07-31T03:59:06;17.90;99.90
10692;DHT22;5396;50.950;6.988;2023-07-31T04:01:32;18.00;99.90
10692;DHT22;5396;50.950;6.988;2023-07-31T04:03:57;18.00;99.90
10692;DHT22;5396;50.950;6.988;2023-07-31T04:06:23;18.10;99.90
10692;DHT22;5396;50.950;6.988;2023-07-31T04:08:49;18.10;99.90
10692;DHT22;5396;50.950;6.988;2023-07-31T04:11:15;18.00;99.90
10692;DHT22;5396;50.950;6.988;2023-07-31T04:13:41;17.90;99.90
10692;DHT22;5396;50.950;6.988;2023-07-31T04:16:07;17.80;99.90
10692;DHT22;5396;50.950;6.988;2023-07-31T04:18:32;17.70;99.90
10692;DHT22;5396;50.950;6.988;2023-07-31T04:20:58;17.70;99.90
10692;DHT22;5396;50.950;6.988;2023-07-31T04:23:25;17.80;99.90
10692;DHT22;5396;50.950;6.988;2023-07-31T04:25:51;17.90;99.90
10692;DHT22;5396;50.950;6.988;2023-07-31T04:28:16;17.90;99.90
10692;DHT22;5396;50.950;6.988;2023-07-31T04:30:42;18.00;99.90
10692;DHT22;5396;50.950;6.988;2023-07-31T04:33:09;18.00;99.90
10692;DHT22;5396;50.950;6.988;2023-07-31T04:35:35;18.00;99.90
10692;DHT22;5396;50.950;6.988;2023-07-31T04:38:00;18.00;99.90
10692;DHT22;5396;50.950;6.988;2023-07-31T04:40:26;18.00;99.90
10692;DHT22;5396;50.950;6.988;2023-07-31T04:42:52;18.00;99.90
10692;DHT22;5396;50.950;6.988;2023-07-31T04:45:18;18.00;99.90
10692;DHT22;5396;50.950;6.988;2023-07-31T04:47:43;18.00;99.90
10692;DHT22;5396;50.950;6.988;2023-07-31T04:50:09;18.10;99.90
10692;DHT22;5396;50.950;6.988;2023-07-31T04:52:35;18.10;99.90
10692;DHT22;5396;50.950;6.988;2023-07-31T04:55:01;18.20;99.90
10692;DHT22;5396;50.950;6.988;2023-07-31T04:57:26;18.30;99.90
10692;DHT22;5396;50.950;6.988;2023-07-31T04:59:52;18.30;99.90
10692;DHT22;5396;50.950;6.988;2023-07-31T05:02:17;18.40;99.90
10692;DHT22;5396;50.950;6.988;2023-07-31T05:04:43;18.50;99.90
10692;DHT22;5396;50.950;6.988;2023-07-31T05:07:11;18.50;99.90
10692;DHT22;5396;50.950;6.988;2023-07-31T05:09:37;18.60;99.90
10692;DHT22;5396;50.950;6.988;2023-07-31T05:12:05;18.60;99.90
10692;DHT22;5396;50.950;6.988;2023-07-31T05:14:31;18.70;99.90
10692;DHT22;5396;50.950;6.988;2023-07-31T05:16:56;18.70;99.90
10692;DHT22;5396;50.950;6.988;2023-07-31T05:19:22;18.70;99.90
10692;DHT22;5396;50.950;6.988;2023-07-31T05:21:47;18.70;99.90
10692;DHT22;5396;50.950;6.988;2023-07-31T05:24:13;18.70;99.90
10692;DHT22;5396;50.950;6.988;2023-07-31T05:26:39;18.80;99.90
10692;DHT22;5396;50.950;6.988;2023-07-31T05:29:04;18.80;99.90
10692;DHT22;5396;50.950;6.988;2023-07-31T05:31:30;18.90;99.90
10692;DHT22;5396;50.950;6.988;2023-07-31T05:33:57;18.90;99.90
10692;DHT22;5396;50.950;6.988;2023-07-31T05:36:23;18.90;99.90
10692;DHT22;5396;50.950;6.988;2023-07-31T05:38:49;18.90;99.90
10692;DHT22;5396;50.950;6.988;2023-07-31T05:41:14;18.90;99.90
10692;DHT22;5396;50.950;6.988;2023-07-31T05:43:40;18.90;99.90
10692;DHT22;5396;50.950;6.988;2023-07-31T05:46:08;18.90;99.90
10692;DHT22;5396;50.950;6.988;2023-07-31T05:48:34;18.90;99.90
10692;DHT22;5396;50.950;6.988;2023-07-31T05:51:00;18.80;99.90
10692;DHT22;5396;50.950;6.988;2023-07-31T05:53:26;18.80;99.90
10692;DHT22;5396;50.950;6.988;2023-07-31T05:55:51;18.80;99.90
10692;DHT22;5396;50.950;6.988;2023-07-31T05:58:17;18.80;99.90
10692;DHT22;5396;50.950;6.988;2023-07-31T06:00:43;18.70;99.90
10692;DHT22;5396;50.950;6.988;2023-07-31T06:03:08;18.70;99.90
10692;DHT22;5396;50.950;6.988;2023-07-31T06:05:34;18.70;99.90
10692;DHT22;5396;50.950;6.988;2023-07-31T06:08:00;18.60;99.90
10692;DHT22;5396;50.950;6.988;2023-07-31T06:10:26;18.50;99.90
10692;DHT22;5396;50.950;6.988;2023-07-31T06:12:52;18.50;99.90
10692;DHT22;5396;50.950;6.988;2023-07-31T06:15:17;18.40;99.90
10692;DHT22;5396;50.950;6.988;2023-07-31T06:17:44;18.20;99.90
10692;DHT22;5396;50.950;6.988;2023-07-31T06:20:10;18.10;99.90
10692;DHT22;5396;50.950;6.988;2023-07-31T06:22:36;17.80;99.90
10692;DHT22;5396;50.950;6.988;2023-07-31T06:25:02;17.60;99.90
10692;DHT22;5396;50.950;6.988;2023-07-31T06:27:27;17.50;99.90
10692;DHT22;5396;50.950;6.988;2023-07-31T06:29:53;17.40;99.90
10692;DHT22;5396;50.950;6.988;2023-07-31T06:32:18;17.30;99.90
10692;DHT22;5396;50.950;6.988;2023-07-31T06:34:47;17.30;99.90
10692;DHT22;5396;50.950;6.988;2023-07-31T06:37:13;17.30;99.90
10692;DHT22;5396;50.950;6.988;2023-07-31T06:39:38;17.30;99.90
10692;DHT22;5396;50.950;6.988;2023-07-31T06:42:04;17.30;99.90
10692;DHT22;5396;50.950;6.988;2023-07-31T06:44:30;17.20;99.90
10692;DHT22;5396;50.950;6.988;2023-07-31T06:46:55;17.20;99.90
10692;DHT22;5396;50.950;6.988;2023-07-31T06:49:21;17.30;99.90
10692;DHT22;5396;50.950;6.988;2023-07-31T06:51:47;17.30;99.90
10692;DHT22;5396;50.950;6.988;2023-07-31T06:54:12;17.50;99.90
10692;DHT22;5396;50.950;6.988;2023-07-31T06:56:38;17.60;99.90
10692;DHT22;5396;50.950;6.988;2023-07-31T06:59:03;17.70;99.90
10692;DHT22;5396;50.950;6.988;2023-07-31T07:01:29;17.80;99.90
10692;DHT22;5396;50.950;6.988;2023-07-31T07:03:55;17.90;99.90
10692;DHT22;5396;50.950;6.988;2023-07-31T07:06:22;18.00;99.90
10692;DHT22;5396;50.950;6.988;2023-07-31T07:08:48;18.10;99.90
10692;DHT22;5396;50.950;6.988;2023-07-31T07:11:13;18.20;99.90
10692;DHT22;5396;50.950;6.988;2023-07-31T07:13:39;18.20;99.90
10692;DHT22;5396;50.950;6.988;2023-07-31T07:16:05;18.20;99.90
10692;DHT22;5396;50.950;6.988;2023-07-31T07:18:30;18.20;99.90
10692;DHT22;5396;50.950;6.988;2023-07-31T07:20:56;18.30;99.90
10692;DHT22;5396;50.950;6.988;2023-07-31T07:23:23;18.20;99.90
10692;DHT22;5396;50.950;6.988;2023-07-31T07:25:49;18.30;99.90
10692;DHT22;5396;50.950;6.988;2023-07-31T07:28:15;18.30;99.90
10692;DHT22;5396;50.950;6.988;2023-07-31T07:30:41;18.30;99.90
10692;DHT22;5396;50.950;6.988;2023-07-31T07:33:08;18.20;99.90
10692;DHT22;5396;50.950;6.988;2023-07-31T07:35:34;18.30;99.90
10692;DHT22;5396;50.950;6.988;2023-07-31T07:38:01;18.20;99.90
10692;DHT22;5396;50.950;6.988;2023-07-31T07:40:29;18.20;99.90
10692;DHT22;5396;50.950;6.988;2023-07-31T07:42:55;18.20;99.90
10692;DHT22;5396;50.950;6.988;2023-07-31T07:45:20;18.00;99.90
10692;DHT22;5396;50.950;6.988;2023-07-31T07:47:46;17.90;99.90
10692;DHT22;5396;50.950;6.988;2023-07-31T07:50:11;17.80;99.90
10692;DHT22;5396;50.950;6.988;2023-07-31T07:52:37;17.70;99.90
10692;DHT22;5396;50.950;6.988;2023-07-31T07:55:03;17.70;99.90
10692;DHT22;5396;50.950;6.988;2023-07-31T07:57:29;17.60;99.90
10692;DHT22;5396;50.950;6.988;2023-07-31T07:59:55;17.60;99.90
10692;DHT22;5396;50.950;6.988;2023-07-31T08:02:21;17.60;99.90
10692;DHT22;5396;50.950;6.988;2023-07-31T08:04:47;17.50;99.90
10692;DHT22;5396;50.950;6.988;2023-07-31T08:07:12;17.50;99.90
10692;DHT22;5396;50.950;6.988;2023-07-31T08:09:39;17.50;99.90
10692;DHT22;5396;50.950;6.988;2023-07-31T08:12:06;17.40;99.90
10692;DHT22;5396;50.950;6.988;2023-07-31T08:14:31;17.20;99.90
10692;DHT22;5396;50.950;6.988;2023-07-31T08:16:57;17.10;99.90
10692;DHT22;5396;50.950;6.988;2023-07-31T08:19:23;17.10;99.90
10692;DHT22;5396;50.950;6.988;2023-07-31T08:21:48;17.10;99.90
10692;DHT22;5396;50.950;6.988;2023-07-31T08:24:14;17.00;99.90
10692;DHT22;5396;50.950;6.988;2023-07-31T08:26:40;17.00;99.90
10692;DHT22;5396;50.950;6.988;2023-07-31T08:29:05;17.00;99.90
10692;DHT22;5396;50.950;6.988;2023-07-31T08:31:31;17.10;99.90
10692;DHT22;5396;50.950;6.988;2023-07-31T08:33:57;17.20;99.90
10692;DHT22;5396;50.950;6.988;2023-07-31T08:36:22;17.30;99.90
10692;DHT22;5396;50.950;6.988;2023-07-31T08:38:48;17.40;99.90
10692;DHT22;5396;50.950;6.988;2023-07-31T08:41:15;17.50;99.90
10692;DHT22;5396;50.950;6.988;2023-07-31T08:43:44;17.50;99.90
10692;DHT22;5396;50.950;6.988;2023-07-31T08:46:10;17.50;99.90
10692;DHT22;5396;50.950;6.988;2023-07-31T08:48:37;17.60;99.90
10692;DHT22;5396;50.950;6.988;2023-07-31T08:51:04;17.60;99.90
10692;DHT22;5396;50.950;6.988;2023-07-31T08:53:29;17.60;99.90
10692;DHT22;5396;50.950;6.988;2023-07-31T08:55:56;17.60;99.90
10692;DHT22;5396;50.950;6.988;2023-07-31T08:58:24;17.60;99.90
10692;DHT22;5396;50.950;6.988;2023-07-31T09:00:51;17.60;99.90
10692;DHT22;5396;50.950;6.988;2023-07-31T09:03:18;17.70;99.90
10692;DHT22;5396;50.950;6.988;2023-07-31T09:05:45;17.70;99.90
10692;DHT22;5396;50.950;6.988;2023-07-31T09:08:18;17.70;99.90
10692;DHT22;5396;50.950;6.988;2023-07-31T09:10:45;17.70;99.90
10692;DHT22;5396;50.950;6.988;2023-07-31T09:13:14;17.80;99.90
10692;DHT22;5396;50.950;6.988;2023-07-31T09:15:42;17.80;99.90
10692;DHT22;5396;50.950;6.988;2023-07-31T09:18:09;17.70;99.90
10692;DHT22;5396;50.950;6.988;2023-07-31T09:20:35;17.70;99.90
10692;DHT22;5396;50.950;6.988;2023-07-31T09:23:09;17.70;99.90
10692;DHT22;5396;50.950;6.988;2023-07-31T09:25:35;17.70;99.90
10692;DHT22;5396;50.950;6.988;2023-07-31T09:28:03;17.60;99.90
10692;DHT22;5396;50.950;6.988;2023-07-31T09:30:29;17.60;99.90
10692;DHT22;5396;50.950;6.988;2023-07-31T09:33:06;17.50;99.90
10692;DHT22;5396;50.950;6.988;2023-07-31T09:35:34;17.40;99.90
10692;DHT22;5396;50.950;6.988;2023-07-31T09:38:03;17.40;99.90
10692;DHT22;5396;50.950;6.988;2023-07-31T09:40:33;17.50;99.90
10692;DHT22;5396;50.950;6.988;2023-07-31T09:43:01;17.50;99.90
10692;DHT22;5396;50.950;6.988;2023-07-31T09:45:27;17.60;99.90
10692;DHT22;5396;50.950;6.988;2023-07-31T09:47:53;17.70;99.90
10692;DHT22;5396;50.950;6.988;2023-07-31T09:50:24;17.80;99.90
10692;DHT22;5396;50.950;6.988;2023-07-31T09:52:51;17.90;99.90
10692;DHT22;5396;50.950;6.988;2023-07-31T09:55:18;18.10;99.90
10692;DHT22;5396;50.950;6.988;2023-07-31T09:57:48;18.30;99.90
10692;DHT22;5396;50.950;6.988;2023-07-31T10:00:19;18.40;99.90
10692;DHT22;5396;50.950;6.988;2023-07-31T10:02:48;18.60;99.90
10692;DHT22;5396;50.950;6.988;2023-07-31T10:05:15;18.80;99.90
10692;DHT22;5396;50.950;6.988;2023-07-31T10:07:43;18.90;99.90
10692;DHT22;5396;50.950;6.988;2023-07-31T10:10:11;19.10;99.90
10692;DHT22;5396;50.950;6.988;2023-07-31T10:12:37;19.20;99.90
10692;DHT22;5396;50.950;6.988;2023-07-31T10:15:04;19.40;99.90
10692;DHT22;5396;50.950;6.988;2023-07-31T10:17:30;19.50;99.90
10692;DHT22;5396;50.950;6.988;2023-07-31T10:19:58;19.60;99.90
10692;DHT22;5396;50.950;6.988;2023-07-31T10:22:26;19.50;99.90
10692;DHT22;5396;50.950;6.988;2023-07-31T10:24:55;19.50;99.90
10692;DHT22;5396;50.950;6.988;2023-07-31T10:27:22;19.40;99.90
10692;DHT22;5396;50.950;6.988;2023-07-31T10:29:48;19.40;99.90
10692;DHT22;5396;50.950;6.988;2023-07-31T10:32:15;19.50;99.90
10692;DHT22;5396;50.950;6.988;2023-07-31T10:34:42;19.50;99.90
10692;DHT22;5396;50.950;6.988;2023-07-31T10:37:28;19.50;99.90
10692;DHT22;5396;50.950;6.988;2023-07-31T10:42:31;19.60;99.90
10692;DHT22;5396;50.950;6.988;2023-07-31T10:45:02;19.60;99.90
10692;DHT22;5396;50.950;6.988;2023-07-31T10:47:28;19.50;99.90
10692;DHT22;5396;50.950;6.988;2023-07-31T10:50:16;19.50;99.90
10692;DHT22;5396;50.950;6.988;2023-07-31T10:52:47;19.60;99.90
10692;DHT22;5396;50.950;6.988;2023-07-31T10:55:42;19.70;99.90
10692;DHT22;5396;50.950;6.988;2023-07-31T10:58:13;19.80;99.90
10692;DHT22;5396;50.950;6.988;2023-07-31T11:00:43;19.90;99.90
10692;DHT22;5396;50.950;6.988;2023-07-31T11:03:10;20.00;99.90
10692;DHT22;5396;50.950;6.988;2023-07-31T11:08:16;20.20;99.90
10692;DHT22;5396;50.950;6.988;2023-07-31T11:10:45;20.10;99.90
10692;DHT22;5396;50.950;6.988;2023-07-31T11:13:11;19.70;99.90
10692;DHT22;5396;50.950;6.988;2023-07-31T11:15:37;19.30;99.90
10692;DHT22;5396;50.950;6.988;2023-07-31T11:18:03;19.00;99.90
10692;DHT22;5396;50.950;6.988;2023-07-31T11:20:34;18.70;99.90
10692;DHT22;5396;50.950;6.988;2023-07-31T11:23:03;18.70;99.90
10692;DHT22;5396;50.950;6.988;2023-07-31T11:25:32;18.70;99.90
10692;DHT22;5396;50.950;6.988;2023-07-31T11:28:06;18.70;99.90
10692;DHT22;5396;50.950;6.988;2023-07-31T11:30:33;18.80;99.90
10692;DHT22;5396;50.950;6.988;2023-07-31T11:33:00;19.00;99.90
10692;DHT22;5396;50.950;6.988;2023-07-31T11:35:29;19.30;99.90
10692;DHT22;5396;50.950;6.988;2023-07-31T11:37:55;19.60;99.90
10692;DHT22;5396;50.950;6.988;2023-07-31T11:40:20;20.00;99.90
10692;DHT22;5396;50.950;6.988;2023-07-31T11:42:46;20.40;99.90
10692;DHT22;5396;50.950;6.988;2023-07-31T11:45:11;20.60;99.90
10692;DHT22;5396;50.950;6.988;2023-07-31T11:47:37;20.70;99.90
10692;DHT22;5396;50.950;6.988;2023-07-31T11:50:04;20.80;99.90
10692;DHT22;5396;50.950;6.988;2023-07-31T11:52:35;21.00;99.90
10692;DHT22;5396;50.950;6.988;2023-07-31T11:55:02;21.00;99.90
10692;DHT22;5396;50.950;6.988;2023-07-31T11:57:28;21.10;99.90
10692;DHT22;5396;50.950;6.988;2023-07-31T11:59:55;21.10;99.90
10692;DHT22;5396;50.950;6.988;2023-07-31T12:02:22;21.20;99.90
10692;DHT22;5396;50.950;6.988;2023-07-31T12:04:48;21.20;99.90
10692;DHT22;5396;50.950;6.988;2023-07-31T12:07:14;21.20;99.90
10692;DHT22;5396;50.950;6.988;2023-07-31T12:09:54;21.00;99.90
10692;DHT22;5396;50.950;6.988;2023-07-31T12:12:24;20.90;99.90
10692;DHT22;5396;50.950;6.988;2023-07-31T12:14:50;20.80;99.90
10692;DHT22;5396;50.950;6.988;2023-07-31T12:17:17;20.70;99.90
10692;DHT22;5396;50.950;6.988;2023-07-31T12:19:44;20.80;99.90
10692;DHT22;5396;50.950;6.988;2023-07-31T12:22:13;20.80;99.90
10692;DHT22;5396;50.950;6.988;2023-07-31T12:24:41;20.70;99.90
10692;DHT22;5396;50.950;6.988;2023-07-31T12:27:14;20.70;99.90
10692;DHT22;5396;50.950;6.988;2023-07-31T12:29:42;20.70;99.90
10692;DHT22;5396;50.950;6.988;2023-07-31T12:32:24;20.70;99.90
10692;DHT22;5396;50.950;6.988;2023-07-31T12:34:51;20.80;99.90
10692;DHT22;5396;50.950;6.988;2023-07-31T12:37:17;20.80;99.90
10692;DHT22;5396;50.950;6.988;2023-07-31T12:39:42;20.80;99.90
10692;DHT22;5396;50.950;6.988;2023-07-31T12:42:08;20.80;99.90
10692;DHT22;5396;50.950;6.988;2023-07-31T12:44:34;20.70;99.90
10692;DHT22;5396;50.950;6.988;2023-07-31T12:46:59;20.80;99.90
10692;DHT22;5396;50.950;6.988;2023-07-31T12:49:25;20.80;99.90
10692;DHT22;5396;50.950;6.988;2023-07-31T12:51:51;20.80;99.90
10692;DHT22;5396;50.950;6.988;2023-07-31T12:54:16;20.80;99.90
10692;DHT22;5396;50.950;6.988;2023-07-31T12:56:42;20.80;99.90
10692;DHT22;5396;50.950;6.988;2023-07-31T12:59:07;20.80;99.90
10692;DHT22;5396;50.950;6.988;2023-07-31T13:01:33;20.80;99.90
10692;DHT22;5396;50.950;6.988;2023-07-31T13:03:58;20.70;99.90
10692;DHT22;5396;50.950;6.988;2023-07-31T13:06:27;20.60;99.90
10692;DHT22;5396;50.950;6.988;2023-07-31T13:08:53;20.60;99.90
10692;DHT22;5396;50.950;6.988;2023-07-31T13:11:19;20.70;99.90
10692;DHT22;5396;50.950;6.988;2023-07-31T13:13:44;20.80;99.90
10692;DHT22;5396;50.950;6.988;2023-07-31T13:16:10;21.00;99.90
10692;DHT22;5396;50.950;6.988;2023-07-31T13:18:36;21.00;99.90
10692;DHT22;5396;50.950;6.988;2023-07-31T13:21:01;21.00;99.90
10692;DHT22;5396;50.950;6.988;2023-07-31T13:23:28;21.00;99.90
10692;DHT22;5396;50.950;6.988;2023-07-31T13:25:53;21.00;99.90
10692;DHT22;5396;50.950;6.988;2023-07-31T13:28:20;20.90;99.90
10692;DHT22;5396;50.950;6.988;2023-07-31T13:30:46;20.90;99.90
10692;DHT22;5396;50.950;6.988;2023-07-31T13:33:11;21.00;99.90
10692;DHT22;5396;50.950;6.988;2023-07-31T13:35:37;21.00;99.90
10692;DHT22;5396;50.950;6.988;2023-07-31T13:38:02;21.10;99.90
10692;DHT22;5396;50.950;6.988;2023-07-31T13:40:28;21.30;99.90
10692;DHT22;5396;50.950;6.988;2023-07-31T13:42:54;21.30;99.90
10692;DHT22;5396;50.950;6.988;2023-07-31T13:45:21;21.50;99.90
10692;DHT22;5396;50.950;6.988;2023-07-31T13:47:46;21.50;99.90
10692;DHT22;5396;50.950;6.988;2023-07-31T13:50:12;21.70;99.90
10692;DHT22;5396;50.950;6.988;2023-07-31T13:52:37;21.80;99.90
10692;DHT22;5396;50.950;6.988;2023-07-31T13:55:03;22.00;99.90
10692;DHT22;5396;50.950;6.988;2023-07-31T13:57:29;22.10;99.90
10692;DHT22;5396;50.950;6.988;2023-07-31T13:59:54;22.20;99.90
10692;DHT22;5396;50.950;6.988;2023-07-31T14:02:20;22.40;99.90
10692;DHT22;5396;50.950;6.988;2023-07-31T14:04:45;23.00;99.90
10692;DHT22;5396;50.950;6.988;2023-07-31T14:07:11;24.20;99.90
10692;DHT22;5396;50.950;6.988;2023-07-31T14:09:37;24.90;99.90
10692;DHT22;5396;50.950;6.988;2023-07-31T14:12:02;24.80;99.90
10692;DHT22;5396;50.950;6.988;2023-07-31T14:14:28;24.20;99.90
10692;DHT22;5396;50.950;6.988;2023-07-31T14:16:54;23.90;99.90
10692;DHT22;5396;50.950;6.988;2023-07-31T14:19:19;23.60;99.90
10692;DHT22;5396;50.950;6.988;2023-07-31T14:21:45;23.30;99.90
10692;DHT22;5396;50.950;6.988;2023-07-31T14:24:11;22.90;99.90
10692;DHT22;5396;50.950;6.988;2023-07-31T14:26:37;22.50;99.90
10692;DHT22;5396;50.950;6.988;2023-07-31T14:29:02;22.10;99.90
10692;DHT22;5396;50.950;6.988;2023-07-31T14:31:28;22.00;99.90
10692;DHT22;5396;50.950;6.988;2023-07-31T14:33:53;21.80;99.90
10692;DHT22;5396;50.950;6.988;2023-07-31T14:36:19;21.70;99.90
10692;DHT22;5396;50.950;6.988;2023-07-31T14:38:44;21.60;99.90
10692;DHT22;5396;50.950;6.988;2023-07-31T14:41:10;21.40;99.90
10692;DHT22;5396;50.950;6.988;2023-07-31T14:43:35;21.30;99.90
10692;DHT22;5396;50.950;6.988;2023-07-31T14:46:01;21.20;99.90
10692;DHT22;5396;50.950;6.988;2023-07-31T14:48:27;21.20;99.90
10692;DHT22;5396;50.950;6.988;2023-07-31T14:50:53;21.20;99.90
10692;DHT22;5396;50.950;6.988;2023-07-31T14:53:19;21.20;99.90
10692;DHT22;5396;50.950;6.988;2023-07-31T14:55:44;21.20;99.90
10692;DHT22;5396;50.950;6.988;2023-07-31T14:58:10;21.30;99.90
10692;DHT22;5396;50.950;6.988;2023-07-31T15:00:39;21.30;99.90
10692;DHT22;5396;50.950;6.988;2023-07-31T15:03:05;21.40;99.90
10692;DHT22;5396;50.950;6.988;2023-07-31T15:05:31;21.30;99.90
10692;DHT22;5396;50.950;6.988;2023-07-31T15:07:56;21.20;99.90
10692;DHT22;5396;50.950;6.988;2023-07-31T15:10:22;21.20;99.90
10692;DHT22;5396;50.950;6.988;2023-07-31T15:12:48;21.20;99.90
10692;DHT22;5396;50.950;6.988;2023-07-31T15:15:15;21.20;99.90
10692;DHT22;5396;50.950;6.988;2023-07-31T15:17:42;21.10;99.90
10692;DHT22;5396;50.950;6.988;2023-07-31T15:20:09;21.10;99.90
10692;DHT22;5396;50.950;6.988;2023-07-31T15:22:35;21.20;99.90
10692;DHT22;5396;50.950;6.988;2023-07-31T15:25:00;21.20;99.90
10692;DHT22;5396;50.950;6.988;2023-07-31T15:27:26;21.30;99.90
10692;DHT22;5396;50.950;6.988;2023-07-31T15:29:51;21.20;99.90
10692;DHT22;5396;50.950;6.988;2023-07-31T15:32:17;21.20;99.90
10692;DHT22;5396;50.950;6.988;2023-07-31T15:34:44;21.10;99.90
10692;DHT22;5396;50.950;6.988;2023-07-31T15:37:10;21.10;99.90
10692;DHT22;5396;50.950;6.988;2023-07-31T15:39:35;21.10;99.90
10692;DHT22;5396;50.950;6.988;2023-07-31T15:42:01;21.00;99.90
10692;DHT22;5396;50.950;6.988;2023-07-31T15:44:26;21.00;99.90
10692;DHT22;5396;50.950;6.988;2023-07-31T15:46:52;21.00;99.90
10692;DHT22;5396;50.950;6.988;2023-07-31T15:49:18;21.00;99.90
10692;DHT22;5396;50.950;6.988;2023-07-31T15:51:44;21.00;99.90
10692;DHT22;5396;50.950;6.988;2023-07-31T15:54:10;21.00;99.90